Time;durP1;ratioP1;P1;durP2;ratioP2;P2;SDS_P1;SDS_P2;PMS_P1;PMS_P2;Temp;Humidity;BMP_temperature;BMP_pressure;BME280_temperature;BME280_humidity;BME280_pressure;Samples;Min_cycle;Max_cycle;Signal;HPM_P1;HPM_P2
2022/03/03 00:00:18;;;;;;;;;;;;;;;-3.91;75.59;97118.92;109761;1250;60463;-61
2022/03/03 00:03:06;;;;;;;20.40;10.50;;;;;;;-3.92;75.21;97117.93;109853;1250;71579;-62
2022/03/03 00:05:36;;;;;;;19.00;10.90;;;;;;;-3.95;75.31;97116.45;109524;1250;67675;-62
2022/03/03 00:08:06;;;;;;;11.50;8.70;;;;;;;-3.99;75.55;97114.66;109799;1250;69281;-63
2022/03/03 00:10:35;;;;;;;13.80;9.50;;;;;;;-4.05;75.11;97110.52;109757;1252;60480;-60
2022/03/03 00:13:05;;;;;;;24.90;16.10;;;;;;;-4.12;79.12;97110.31;109795;1250;60555;-60
2022/03/03 00:15:34;;;;;;;28.80;17.10;;;;;;;-4.22;80.36;97108.81;109651;1250;72453;-62
2022/03/03 00:18:04;;;;;;;24.40;13.40;;;;;;;-4.30;81.32;97108.27;109812;1251;68655;-63
2022/03/03 00:20:34;;;;;;;14.60;8.40;;;;;;;-4.34;80.17;97105.27;109563;1253;68754;-61
2022/03/03 00:23:04;;;;;;;16.50;11.30;;;;;;;-4.38;79.06;97106.20;109772;1250;60573;-63
2022/03/03 00:25:34;;;;;;;27.20;17.20;;;;;;;-4.42;78.61;97107.98;109805;1251;60514;-61
2022/03/03 00:28:05;;;;;;;25.80;15.40;;;;;;;-4.48;80.13;97104.00;109770;1250;71407;-62
2022/03/03 00:30:36;;;;;;;19.70;11.10;;;;;;;-4.51;79.75;97106.80;109723;1249;68548;-61
2022/03/03 00:33:05;;;;;;;21.00;10.60;;;;;;;-4.53;79.09;97105.98;109716;1251;69264;-62
2022/03/03 00:35:35;;;;;;;19.70;14.40;;;;;;;-4.49;77.34;97105.73;109850;1250;60508;-62
2022/03/03 00:38:05;;;;;;;29.50;16.60;;;;;;;-4.49;77.40;97111.17;109602;1251;60552;-61
2022/03/03 00:40:36;;;;;;;21.20;12.10;;;;;;;-4.52;77.40;97115.50;109896;1251;72157;-60
2022/03/03 00:43:06;;;;;;;18.60;11.80;;;;;;;-4.54;76.79;97115.70;109870;1250;68617;-61
2022/03/03 00:45:37;;;;;;;21.90;14.20;;;;;;;-4.54;76.63;97114.85;109799;1250;68597;-61
2022/03/03 00:48:06;;;;;;;;;;;;;;;-4.55;77.65;97109.25;109949;1250;60506;-61
2022/03/03 00:50:36;;;;;;;22.10;13.10;;;;;;;-4.52;76.53;97112.09;109887;1249;60505;-62
2022/03/03 00:53:06;;;;;;;21.50;14.30;;;;;;;-4.54;76.66;97110.08;109744;1251;72958;-62
2022/03/03 00:55:36;;;;;;;24.40;14.90;;;;;;;-4.55;76.73;97114.02;109751;1250;68548;-63
2022/03/03 00:58:06;;;;;;;36.00;20.00;;;;;;;-4.54;76.49;97111.77;109788;1251;67778;-62
2022/03/03 01:00:36;;;;;;;29.30;15.90;;;;;;;-4.54;78.26;97110.41;109754;1250;60497;-62
2022/03/03 01:03:06;;;;;;;21.10;11.20;;;;;;;-4.53;77.91;97109.55;109728;1250;60502;-61
2022/03/03 01:05:36;;;;;;;31.50;19.60;;;;;;;-4.48;77.76;97106.74;109677;1251;72167;-63
2022/03/03 01:08:10;;;;;;;24.70;14.80;;;;;;;-4.45;79.75;97104.48;109732;1251;67927;-62
2022/03/03 01:10:41;;;;;;;32.90;16.90;;;;;;;-4.40;78.01;97105.91;110016;1249;68491;-62
2022/03/03 01:13:10;;;;;;;19.90;12.60;;;;;;;-4.37;78.95;97107.05;110034;1250;60482;-62
2022/03/03 01:15:40;;;;;;;21.10;10.90;;;;;;;-4.34;77.66;97104.59;109703;1251;60458;-62
2022/03/03 01:18:11;;;;;;;31.90;18.50;;;;;;;-4.29;78.55;97104.69;109799;1251;71608;-62
2022/03/03 01:20:42;;;;;;;32.90;19.30;;;;;;;-4.31;81.25;97104.55;109854;1250;67776;-61
2022/03/03 01:23:12;;;;;;;31.30;19.90;;;;;;;-4.33;81.38;97104.94;109859;1251;67642;-62
2022/03/03 01:25:43;;;;;;;;;;;;;;;-4.34;81.65;97105.46;110030;1250;60534;-61
2022/03/03 01:28:13;;;;;;;18.60;11.40;;;;;;;-4.35;81.08;97104.96;110000;1250;60619;-60
2022/03/03 01:30:43;;;;;;;21.20;13.80;;;;;;;-4.30;78.89;97101.11;110017;1250;71403;-62
2022/03/03 01:33:13;;;;;;;23.30;13.10;;;;;;;-4.22;78.14;97098.59;109737;1251;68569;-61
2022/03/03 01:35:43;;;;;;;25.50;14.50;;;;;;;-4.19;78.84;97103.65;109801;1251;69313;-61
2022/03/03 01:38:13;;;;;;;31.60;17.80;;;;;;;-4.17;79.30;97100.36;109853;1250;60515;-63
2022/03/03 01:40:43;;;;;;;22.60;13.10;;;;;;;-4.14;79.00;97105.23;109776;1250;60504;-62
2022/03/03 01:43:14;;;;;;;18.90;12.30;;;;;;;-4.12;78.23;97103.65;109909;1251;71526;-62
2022/03/03 01:45:44;;;;;;;19.80;12.40;;;;;;;-4.10;77.60;97107.38;109837;1250;67607;-63
2022/03/03 01:48:14;;;;;;;16.50;11.90;;;;;;;-4.07;76.97;97106.30;109935;1250;69404;-64
2022/03/03 01:50:45;;;;;;;14.50;9.40;;;;;;;-4.04;77.29;97107.27;109907;1250;60481;-64
2022/03/03 01:53:16;;;;;;;25.00;13.70;;;;;;;-4.00;77.53;97105.15;110048;1250;60473;-62
2022/03/03 01:55:47;;;;;;;21.60;11.80;;;;;;;-3.97;77.93;97102.52;109967;1250;72297;-64
2022/03/03 01:58:17;;;;;;;22.30;13.30;;;;;;;-3.87;76.70;97100.29;109838;1251;68441;-62
2022/03/03 02:00:51;;;;;;;21.30;12.90;;;;;;;-3.79;77.13;97098.92;109959;1251;68750;-60
2022/03/03 02:03:22;;;;;;;18.60;12.50;;;;;;;-3.73;77.42;97098.30;109802;1251;60584;-61
2022/03/03 02:05:52;;;;;;;19.70;11.60;;;;;;;-3.72;77.26;97095.04;109903;1251;60562;-61
2022/03/03 02:08:23;;;;;;;21.90;12.70;;;;;;;-3.70;77.31;97090.73;109785;1250;72472;-64
2022/03/03 02:10:54;;;;;;;24.40;13.80;;;;;;;-3.69;77.12;97089.00;110061;1250;67666;-62
2022/03/03 02:13:24;;;;;;;18.90;12.00;;;;;;;-3.68;77.30;97093.23;110010;1250;69402;-63
2022/03/03 02:15:55;;;;;;;17.70;11.80;;;;;;;-3.68;77.15;97092.73;109854;1250;60490;-62
2022/03/03 02:18:25;;;;;;;21.10;11.90;;;;;;;-3.69;77.12;97091.05;109792;1251;60488;-63
2022/03/03 02:20:56;;;;;;;24.90;15.30;;;;;;;-3.68;76.87;97092.55;109786;1250;72278;-63
2022/03/03 02:23:27;;;;;;;27.70;15.20;;;;;;;-3.67;77.48;97092.52;109588;1251;68442;-61
2022/03/03 02:25:58;;;;;;;;;;;;;;;-3.73;78.66;97096.58;109637;1251;68635;-61
2022/03/03 02:28:28;;;;;;;;;;;;;;;-3.79;78.97;97097.56;109828;1251;60588;-62
2022/03/03 02:30:59;;;;;;;15.40;8.80;;;;;;;-3.81;78.12;97096.58;109852;1250;60479;-62
2022/03/03 02:33:30;;;;;;;25.60;15.10;;;;;;;-3.81;77.58;97090.80;109797;1251;72209;-63
2022/03/03 02:36:22;;;;;;;19.10;12.40;;;;;;;-3.82;77.44;97087.06;109880;1251;67648;-61
2022/03/03 02:38:54;;;;;;;29.50;17.30;;;;;;;-3.84;77.80;97086.42;109802;1251;69385;-60
2022/03/03 02:41:25;;;;;;;30.00;18.40;;;;;;;-3.91;79.56;97091.69;109965;1250;60555;-62
2022/03/03 02:43:57;;;;;;;34.30;20.00;;;;;;;-3.97;80.05;97089.77;109381;1250;625777;-61
2022/03/03 02:46:27;;;;;;;37.90;21.10;;;;;;;-4.07;80.68;97084.17;109666;1251;71574;-62
2022/03/03 02:48:58;;;;;;;27.80;16.60;;;;;;;-4.09;80.28;97080.96;109735;1251;68605;-63
2022/03/03 02:51:28;;;;;;;25.70;14.50;;;;;;;-4.07;79.18;97078.21;109703;1251;68580;-62
2022/03/03 02:53:58;;;;;;;18.10;12.10;;;;;;;-4.05;78.80;97076.15;109991;1250;60546;-64
2022/03/03 02:56:28;;;;;;;25.90;16.50;;;;;;;-4.02;78.41;97082.21;109889;1249;60494;-63
2022/03/03 02:58:59;;;;;;;23.10;14.80;;;;;;;-3.98;79.13;97082.96;109838;1251;70639;-61
2022/03/03 03:01:29;;;;;;;24.30;15.90;;;;;;;-3.94;78.88;97082.21;110034;1250;68463;-63
2022/03/03 03:04:00;;;;;;;23.10;13.60;;;;;;;-3.89;78.25;97084.66;109600;1252;68609;-62
2022/03/03 03:06:31;;;;;;;25.40;14.50;;;;;;;-3.83;77.29;97086.73;109594;1251;60522;-62
2022/03/03 03:09:02;;;;;;;27.90;14.70;;;;;;;-3.78;77.47;97078.98;109932;1251;60569;-62
2022/03/03 03:11:32;;;;;;;24.20;15.70;;;;;;;-3.79;77.99;97075.42;109679;1251;71485;-62
2022/03/03 03:14:02;;;;;;;24.00;15.40;;;;;;;-3.81;78.97;97073.23;109677;1251;67845;-61
2022/03/03 03:16:32;;;;;;;21.00;12.10;;;;;;;-3.81;78.92;97067.12;109784;1250;68740;-62
2022/03/03 03:19:02;;;;;;;;;;;;;;;-3.80;77.81;97065.55;109823;1251;60600;-61
2022/03/03 03:21:33;;;;;;;14.80;9.20;;;;;;;-3.81;78.44;97063.05;109835;1251;60494;-60
2022/03/03 03:24:03;;;;;;;17.40;11.70;;;;;;;-3.82;77.43;97067.84;109765;1251;72298;-63
2022/03/03 03:26:33;;;;;;;17.10;12.60;;;;;;;-3.82;77.67;97065.30;109696;1250;68736;-61
2022/03/03 03:29:03;;;;;;;19.40;11.30;;;;;;;-3.82;77.01;97067.48;109672;1251;69472;-61
2022/03/03 03:31:32;;;;;;;29.70;17.00;;;;;;;-3.78;77.35;97064.33;109708;1250;60564;-62
2022/03/03 03:34:02;;;;;;;34.90;19.80;;;;;;;-3.78;77.98;97067.05;109519;1253;60580;-61
2022/03/03 03:36:32;;;;;;;31.90;18.90;;;;;;;-3.90;79.13;97071.90;109707;1253;70746;-61
2022/03/03 03:39:03;;;;;;;34.40;19.90;;;;;;;-3.99;78.86;97070.39;109686;1252;68561;-60
2022/03/03 03:41:33;;;;;;;;;;;;;;;-4.07;80.67;97065.80;109739;1251;69410;-62
2022/03/03 03:44:03;;;;;;;32.80;18.70;;;;;;;-4.13;82.62;97061.83;109845;1251;60534;-62
2022/03/03 03:46:33;;;;;;;39.80;22.50;;;;;;;-4.13;82.49;97060.81;109800;1251;60496;-63
2022/03/03 03:49:05;;;;;;;35.60;18.40;;;;;;;-4.14;82.45;97065.77;109660;1253;71458;-63
2022/03/03 03:51:35;;;;;;;34.20;20.60;;;;;;;-4.16;83.14;97065.63;109691;1251;68635;-62
2022/03/03 03:54:05;;;;;;;39.30;22.00;;;;;;;-4.18;83.46;97070.09;109709;1250;69487;-62
2022/03/03 03:56:35;;;;;;;29.60;17.20;;;;;;;-4.17;82.96;97071.77;109716;1251;60513;-62
2022/03/03 03:59:05;;;;;;;27.60;15.70;;;;;;;-4.14;81.08;97075.45;109866;1251;60925;-63
2022/03/03 04:01:35;;;;;;;23.60;15.00;;;;;;;-4.15;80.59;97079.92;109744;1251;71990;-61
2022/03/03 04:04:06;;;;;;;23.70;13.50;;;;;;;-4.18;80.29;97076.73;109850;1251;68576;-62
2022/03/03 04:06:37;;;;;;;32.90;19.80;;;;;;;-4.21;80.21;97073.90;109753;1251;68679;-61
2022/03/03 04:09:07;;;;;;;26.00;16.10;;;;;;;-4.25;80.47;97072.95;109741;1250;60580;-61
2022/03/03 04:11:37;;;;;;;25.50;16.20;;;;;;;-4.27;80.25;97073.52;109693;1251;60542;-63
2022/03/03 04:14:07;;;;;;;22.90;13.70;;;;;;;-4.31;80.47;97074.60;109731;1251;72443;-65
2022/03/03 04:16:37;;;;;;;18.30;11.80;;;;;;;-4.33;80.00;97081.12;109631;1250;67761;-62
2022/03/03 04:19:07;;;;;;;16.90;12.10;;;;;;;-4.36;80.06;97081.34;109656;1251;69237;-61
2022/03/03 04:21:37;;;;;;;15.60;11.40;;;;;;;-4.39;79.92;97080.88;109645;1250;60858;-61
2022/03/03 04:24:07;;;;;;;18.50;12.30;;;;;;;-4.42;79.19;97081.61;109733;1251;60560;-61
2022/03/03 04:26:37;;;;;;;29.00;16.50;;;;;;;-4.46;79.36;97084.24;109773;1250;72159;-61
2022/03/03 04:29:07;;;;;;;31.70;18.40;;;;;;;-4.50;79.91;97088.05;109814;1250;68478;-62
2022/03/03 04:31:36;;;;;;;19.10;12.90;;;;;;;-4.53;79.87;97087.27;109757;1251;69449;-62
2022/03/03 04:34:06;;;;;;;18.00;12.40;;;;;;;-4.57;79.46;97086.32;109661;1251;60547;-61
2022/03/03 04:36:36;;;;;;;29.20;17.20;;;;;;;-4.61;79.42;97088.60;109681;1251;60576;-60
2022/03/03 04:39:05;;;;;;;14.60;10.10;;;;;;;-4.67;80.10;97093.64;109739;1251;70394;-62
2022/03/03 04:41:35;;;;;;;24.70;14.70;;;;;;;-4.71;80.89;97091.32;109677;1251;67833;-62
2022/03/03 04:44:07;;;;;;;27.20;15.30;;;;;;;-4.75;81.70;97091.23;109721;1251;69256;-62
2022/03/03 04:46:36;;;;;;;23.20;15.90;;;;;;;-4.79;81.65;97094.02;109805;1251;60557;-61
2022/03/03 04:49:07;;;;;;;22.20;13.10;;;;;;;-4.80;82.70;97091.48;109582;1251;60565;-62
2022/03/03 04:51:37;;;;;;;15.60;10.10;;;;;;;-4.79;82.23;97089.42;109768;1251;72359;-62
2022/03/03 04:54:08;;;;;;;25.80;15.80;;;;;;;-4.78;81.61;97088.38;109722;1251;67644;-63
2022/03/03 04:56:39;;;;;;;20.70;12.90;;;;;;;-4.76;82.72;97089.55;109760;1251;69403;-62
2022/03/03 04:59:08;;;;;;;18.00;11.20;;;;;;;-4.75;82.27;97088.18;109771;1251;60579;-62
2022/03/03 05:01:38;;;;;;;22.40;13.90;;;;;;;-4.71;80.21;97084.70;109710;1251;60569;-62
2022/03/03 05:04:08;;;;;;;25.80;16.10;;;;;;;-4.69;79.67;97084.33;109526;1251;72245;-61
2022/03/03 05:06:37;;;;;;;27.60;17.60;;;;;;;-4.67;79.41;97084.63;109676;1251;68655;-61
2022/03/03 05:09:07;;;;;;;19.40;13.90;;;;;;;-4.65;79.29;97083.41;109717;1251;69230;-62
2022/03/03 05:11:36;;;;;;;33.20;16.60;;;;;;;-4.62;79.29;97085.05;109830;1250;60572;-61
2022/03/03 05:14:06;;;;;;;18.60;12.30;;;;;;;-4.58;80.09;97082.95;109865;1250;60491;-61
2022/03/03 05:16:35;;;;;;;20.00;12.40;;;;;;;-4.55;79.73;97084.25;109847;1251;72369;-62
2022/03/03 05:19:05;;;;;;;12.60;7.30;;;;;;;-4.50;79.37;97083.14;109490;1251;68534;-62
2022/03/03 05:21:35;;;;;;;19.60;11.40;;;;;;;-4.44;78.73;97080.65;109960;1249;68536;-62
2022/03/03 05:24:05;;;;;;;17.90;10.30;;;;;;;-4.36;78.54;97083.04;109834;1250;60451;-62
2022/03/03 05:26:34;;;;;;;21.50;13.70;;;;;;;-4.26;78.56;97087.45;109884;1249;60616;-60
2022/03/03 05:29:03;;;;;;;22.40;12.70;;;;;;;-4.12;79.77;97088.18;109804;1250;71623;-62
2022/03/03 05:31:33;;;;;;;18.30;11.30;;;;;;;-4.00;79.17;97082.34;109628;1251;67795;-61
2022/03/03 05:34:03;;;;;;;14.40;9.00;;;;;;;-3.90;78.67;97086.89;109826;1250;69414;-60
2022/03/03 05:36:39;;;;;;;18.80;12.20;;;;;;;-3.81;78.16;97091.48;109651;1251;60548;-61
2022/03/03 05:39:08;;;;;;;21.50;11.20;;;;;;;-3.74;77.85;97091.51;109878;1249;60439;-63
2022/03/03 05:41:38;;;;;;;22.10;11.20;;;;;;;-3.67;77.27;97086.23;109807;1250;72766;-61
2022/03/03 05:44:14;;;;;;;19.00;12.10;;;;;;;-3.59;77.37;97080.27;109680;1251;68423;-61
2022/03/03 05:46:44;;;;;;;24.90;15.80;;;;;;;-3.55;77.38;97080.19;109780;1250;69439;-61
2022/03/03 05:49:16;;;;;;;18.80;12.70;;;;;;;-3.53;77.51;97078.77;109662;1251;60520;-61
2022/03/03 05:51:45;;;;;;;23.40;13.60;;;;;;;-3.48;77.02;97078.30;109577;1251;60531;-62
2022/03/03 05:54:16;;;;;;;32.10;17.60;;;;;;;-3.43;77.28;97072.91;109836;1250;72474;-62
2022/03/03 05:56:48;;;;;;;30.50;18.70;;;;;;;-3.41;78.47;97073.22;109808;1250;68672;-61
2022/03/03 05:59:21;;;;;;;19.40;13.00;;;;;;;-3.37;78.45;97075.18;109714;1250;69860;-63
2022/03/03 06:01:51;;;;;;;22.50;13.80;;;;;;;-3.30;77.50;97075.19;109646;1251;60512;-64
2022/03/03 06:04:27;;;;;;;24.40;15.60;;;;;;;-3.24;77.18;97072.13;109762;1249;60553;-64
2022/03/03 06:07:07;;;;;;;18.70;13.20;;;;;;;-3.17;77.78;97070.95;109968;1250;72453;-63
2022/03/03 06:09:37;;;;;;;;;;;;;;;-3.09;77.33;97070.08;109762;1251;68610;-61
2022/03/03 06:12:19;;;;;;;16.80;9.40;;;;;;;-3.00;77.00;97073.28;109875;1250;68674;-61
2022/03/03 06:14:54;;;;;;;20.10;10.80;;;;;;;-2.90;76.47;97072.87;109696;1250;60478;-61
2022/03/03 06:17:24;;;;;;;26.60;15.60;;;;;;;-2.79;77.00;97075.16;109684;1251;60571;-61
2022/03/03 06:19:54;;;;;;;27.60;15.70;;;;;;;-2.71;77.05;97075.45;109627;1251;71916;-62
2022/03/03 06:22:23;;;;;;;25.80;15.50;;;;;;;-2.61;76.65;97075.02;109619;1251;68733;-61
2022/03/03 06:24:53;;;;;;;29.90;17.50;;;;;;;-2.49;76.41;97075.56;109639;1251;69530;-61
2022/03/03 06:27:29;;;;;;;24.90;15.50;;;;;;;-2.42;75.97;97072.48;109658;1251;60525;-61
2022/03/03 06:29:59;;;;;;;22.60;15.20;;;;;;;-2.30;75.55;97071.81;109783;1250;60502;-62
2022/03/03 06:32:29;;;;;;;23.60;14.50;;;;;;;-2.24;75.16;97072.67;109680;1251;71402;-61
2022/03/03 06:34:59;;;;;;;26.70;16.00;;;;;;;-2.07;75.13;97069.98;109705;1250;68372;-61
2022/03/03 06:37:29;;;;;;;36.80;19.70;;;;;;;-1.89;75.04;97066.39;109521;1253;67500;-59
2022/03/03 06:39:59;;;;;;;32.40;18.30;;;;;;;-1.75;73.98;97066.67;109780;1251;60565;-61
2022/03/03 06:42:30;;;;;;;26.70;17.80;;;;;;;-1.66;73.74;97070.85;109761;1251;60556;-62
2022/03/03 06:44:59;;;;;;;26.30;15.90;;;;;;;-1.49;73.65;97073.59;109804;1251;72349;-61
2022/03/03 06:47:29;;;;;;;17.50;11.80;;;;;;;-1.36;73.47;97068.55;109537;1251;67838;-62
2022/03/03 06:49:59;;;;;;;17.80;11.60;;;;;;;-1.17;72.80;97069.70;109420;1251;68309;-62
2022/03/03 06:52:33;;;;;;;20.80;12.30;;;;;;;-0.97;72.84;97076.77;109734;1250;60519;-63
2022/03/03 06:55:05;;;;;;;18.90;10.70;;;;;;;-0.93;70.61;97082.60;109423;1253;60574;-62
2022/03/03 06:57:38;;;;;;;17.10;10.10;;;;;;;-0.75;70.95;97087.31;109668;1251;72360;-62
2022/03/03 07:00:09;;;;;;;18.00;11.20;;;;;;;-0.67;69.97;97088.77;109407;1254;67954;-62
2022/03/03 07:02:39;;;;;;;16.60;11.00;;;;;;;-0.73;69.07;97088.98;109617;1251;69707;-61
2022/03/03 07:05:10;;;;;;;21.10;13.00;;;;;;;-0.76;68.53;97090.12;109550;1251;60541;-60
2022/03/03 07:07:43;;;;;;;21.60;12.70;;;;;;;-0.76;68.98;97090.27;109623;1251;60515;-60
2022/03/03 07:10:14;;;;;;;22.50;14.40;;;;;;;-0.92;69.97;97092.36;109638;1251;72340;-61
2022/03/03 07:12:43;;;;;;;22.50;13.50;;;;;;;-1.12;70.47;97093.13;109697;1250;68024;-62
2022/03/03 07:15:13;;;;;;;21.40;13.30;;;;;;;-1.09;70.97;97094.91;109688;1251;69255;-61
2022/03/03 07:17:56;;;;;;;21.20;12.70;;;;;;;-1.07;70.84;97091.59;109686;1251;60597;-61
2022/03/03 07:20:26;;;;;;;20.10;11.20;;;;;;;-1.06;70.24;97095.01;109889;1250;60504;-61
2022/03/03 07:23:04;;;;;;;;;;;;;;;-0.88;70.21;97096.30;109772;1251;71536;-62
2022/03/03 07:25:49;;;;;;;14.90;11.70;;;;;;;-0.69;69.81;97094.48;109906;1249;68591;-60
2022/03/03 07:28:27;;;;;;;15.20;8.40;;;;;;;-0.56;69.05;97092.50;109614;1250;68671;-62
2022/03/03 07:31:00;;;;;;;18.70;11.70;;;;;;;-0.48;68.11;97088.31;109964;1250;60540;-61
2022/03/03 07:33:47;;;;;;;16.80;11.20;;;;;;;-0.50;67.55;97088.39;109826;1250;60487;-61
2022/03/03 07:36:22;;;;;;;14.40;10.30;;;;;;;-0.48;67.95;97091.92;109787;1250;72342;-61
2022/03/03 07:39:00;;;;;;;18.60;12.90;;;;;;;-0.35;68.20;97083.94;109925;1250;68661;-60
2022/03/03 07:41:32;;;;;;;16.00;9.90;;;;;;;-0.22;68.17;97085.35;109911;1250;68612;-61
2022/03/03 07:44:02;;;;;;;17.50;10.20;;;;;;;0.02;68.20;97082.10;109619;1250;60511;-61
2022/03/03 07:46:32;;;;;;;21.40;12.60;;;;;;;0.26;66.89;97085.34;109564;1250;60462;-61
2022/03/03 07:49:01;;;;;;;16.70;9.90;;;;;;;0.44;66.73;97086.72;109774;1250;72270;-60
2022/03/03 07:51:31;;;;;;;13.70;7.60;;;;;;;0.69;66.95;97086.48;109717;1251;66824;-62
2022/03/03 07:54:02;;;;;;;15.90;9.80;;;;;;;0.95;65.91;97089.72;109728;1250;68473;-61
2022/03/03 07:56:37;;;;;;;;;;;;;;;1.27;65.88;97092.40;109791;1250;60531;-61
2022/03/03 07:59:11;;;;;;;13.40;10.10;;;;;;;1.64;64.77;97096.38;109782;1250;60735;-61
2022/03/03 08:01:43;;;;;;;15.60;10.20;;;;;;;1.93;62.09;97094.45;109971;1250;72388;-61
2022/03/03 08:04:18;;;;;;;15.30;10.50;;;;;;;2.18;63.28;97094.19;109819;1251;68050;-64
2022/03/03 08:06:48;;;;;;;11.50;8.10;;;;;;;2.51;62.49;97089.28;109619;1250;69248;-61
2022/03/03 08:09:21;;;;;;;15.90;11.20;;;;;;;2.75;60.25;97088.52;110026;1250;60999;-62
2022/03/03 08:11:53;;;;;;;16.20;11.40;;;;;;;2.89;58.90;97085.78;109772;1250;60556;-62
2022/03/03 08:14:24;;;;;;;16.20;11.70;;;;;;;3.39;59.55;97086.83;109837;1251;72324;-61
2022/03/03 08:16:53;;;;;;;14.10;8.90;;;;;;;3.89;57.87;97087.75;109540;1251;68679;-61
2022/03/03 08:19:24;;;;;;;20.60;13.40;;;;;;;4.36;55.93;97082.73;109712;1251;68470;-62
2022/03/03 08:21:54;;;;;;;19.60;13.10;;;;;;;4.45;51.96;97080.91;109820;1250;60509;-61
2022/03/03 08:24:25;;;;;;;17.00;11.70;;;;;;;4.78;54.23;97078.23;109739;1250;60577;-62
2022/03/03 08:26:55;;;;;;;14.40;9.80;;;;;;;5.41;51.70;97076.93;109846;1250;71419;-61
2022/03/03 08:29:25;;;;;;;16.00;10.60;;;;;;;5.98;52.64;97075.84;109740;1250;66760;-62
2022/03/03 08:31:57;;;;;;;14.80;11.10;;;;;;;6.78;50.12;97075.67;109690;1251;67957;-60
2022/03/03 08:34:33;;;;;;;14.40;10.20;;;;;;;7.19;49.94;97077.19;109853;1251;60546;-61
2022/03/03 08:37:07;;;;;;;16.20;11.90;;;;;;;7.40;48.78;97068.37;109872;1250;60509;-62
2022/03/03 08:39:38;;;;;;;15.50;10.20;;;;;;;7.64;47.40;97070.27;109612;1250;72347;-64
2022/03/03 08:42:12;;;;;;;15.30;11.80;;;;;;;7.85;46.54;97067.14;109495;1252;68423;-62
2022/03/03 08:44:52;;;;;;;15.80;12.00;;;;;;;7.94;46.10;97072.23;109917;1250;68678;-63
2022/03/03 08:47:23;;;;;;;15.20;11.70;;;;;;;8.41;45.05;97068.90;109819;1249;60555;-62
2022/03/03 08:50:05;;;;;;;13.80;10.70;;;;;;;8.50;42.80;97064.80;109813;1250;60483;-61
2022/03/03 08:52:57;;;;;;;10.90;9.00;;;;;;;9.11;44.13;97064.95;109759;1251;71634;-60
2022/03/03 08:55:28;;;;;;;13.40;10.10;;;;;;;9.45;39.87;97063.19;109834;1250;67887;-62
2022/03/03 08:57:59;;;;;;;13.00;9.40;;;;;;;9.88;40.85;97061.02;109940;1250;68645;-60
2022/03/03 09:00:30;;;;;;;15.20;12.30;;;;;;;9.93;39.82;97059.11;110004;1249;60497;-60
2022/03/03 09:03:00;;;;;;;14.50;11.20;;;;;;;8.84;38.70;97060.20;109707;1250;60538;-61
2022/03/03 09:05:32;;;;;;;13.60;10.30;;;;;;;8.11;40.28;97060.70;109810;1250;72196;-61
2022/03/03 09:08:01;;;;;;;14.80;11.10;;;;;;;7.29;41.37;97063.30;109882;1250;67952;-62
2022/03/03 09:10:31;;;;;;;13.00;9.20;;;;;;;7.09;42.32;97062.42;109908;1248;68655;-62
2022/03/03 09:13:01;;;;;;;14.10;10.50;;;;;;;8.78;41.29;97059.17;109972;1250;60531;-62
2022/03/03 09:15:31;;;;;;;13.20;8.90;;;;;;;9.11;38.61;97054.71;109888;1250;60456;-62
2022/03/03 09:18:00;;;;;;;10.00;7.50;;;;;;;9.75;37.99;97051.69;109797;1249;71583;-63
2022/03/03 09:20:30;;;;;;;10.50;7.70;;;;;;;10.60;37.30;97048.88;109749;1250;68603;-61
2022/03/03 09:23:01;;;;;;;11.80;8.70;;;;;;;11.53;36.64;97045.94;109790;1250;69398;-64
2022/03/03 09:25:31;;;;;;;10.80;8.50;;;;;;;12.23;34.85;97045.64;109938;1250;60485;-62
2022/03/03 09:28:00;;;;;;;12.20;9.80;;;;;;;12.55;33.25;97040.30;109929;1249;60452;-63
2022/03/03 09:30:30;;;;;;;11.90;10.00;;;;;;;11.80;32.07;97046.66;109863;1250;71439;-61
2022/03/03 09:32:59;;;;;;;15.40;9.80;;;;;;;11.67;33.92;97043.06;109945;1250;67653;-62
2022/03/03 09:35:30;;;;;;;11.70;8.90;;;;;;;11.40;34.13;97039.44;109657;1251;68751;-61
2022/03/03 09:37:59;;;;;;;;;;;;;;;11.58;35.45;97041.29;109856;1250;60569;-63
2022/03/03 09:40:29;;;;;;;10.30;8.60;;;;;;;11.59;33.73;97039.98;109866;1250;60499;-63
2022/03/03 09:43:01;;;;;;;10.70;8.40;;;;;;;11.81;34.20;97039.73;109933;1249;72260;-62
2022/03/03 09:45:32;;;;;;;12.70;9.60;;;;;;;12.71;34.27;97035.91;110008;1248;68423;-63
2022/03/03 09:48:09;;;;;;;13.00;9.20;;;;;;;13.25;32.71;97032.63;109725;1250;69574;-63
2022/03/03 09:50:40;;;;;;;11.10;8.60;;;;;;;12.66;31.39;97024.52;109751;1250;60566;-60
2022/03/03 09:53:13;;;;;;;11.50;8.00;;;;;;;13.38;31.25;97023.87;109977;1249;60406;-62
2022/03/03 09:55:44;;;;;;;8.90;7.20;;;;;;;13.50;30.96;97023.66;110062;1250;71381;-63
2022/03/03 09:58:14;;;;;;;11.30;8.50;;;;;;;13.60;31.21;97020.00;109929;1250;66927;-63
2022/03/03 10:00:46;;;;;;;11.30;8.90;;;;;;;13.26;30.40;97016.53;109752;1249;69431;-64
2022/03/03 10:03:18;;;;;;;10.20;7.40;;;;;;;12.37;31.46;97020.92;109689;1250;60972;-62
2022/03/03 10:05:50;;;;;;;11.30;8.60;;;;;;;12.12;32.62;97017.27;109736;1250;60510;-64
2022/03/03 10:08:26;;;;;;;12.60;9.90;;;;;;;11.36;32.79;97014.67;109656;1250;72670;-62
2022/03/03 10:11:03;;;;;;;13.00;9.90;;;;;;;11.17;33.53;97011.68;109976;1250;66992;-65
2022/03/03 10:13:51;;;;;;;10.80;9.40;;;;;;;10.70;33.88;97010.01;109979;1250;68486;-64
2022/03/03 10:16:23;;;;;;;12.50;10.00;;;;;;;10.05;34.72;97006.73;109727;1250;60657;-63
2022/03/03 10:19:03;;;;;;;12.40;9.80;;;;;;;8.62;37.49;97004.55;110051;1250;60391;-65
2022/03/03 10:21:35;;;;;;;10.80;8.30;;;;;;;8.57;37.89;97002.43;109702;1250;71516;-63
2022/03/03 10:24:21;;;;;;;11.00;8.00;;;;;;;10.22;36.27;97005.67;109673;1250;68037;-63
2022/03/03 10:27:02;;;;;;;8.80;6.90;;;;;;;11.96;34.25;97007.17;109884;1250;68862;-63
2022/03/03 10:29:33;;;;;;;9.60;7.40;;;;;;;12.87;31.87;97000.79;109864;1250;60566;-64
2022/03/03 10:32:03;;;;;;;9.20;7.60;;;;;;;12.74;31.38;96991.55;109909;1250;60577;-63
2022/03/03 10:34:34;;;;;;;;;;;;;;;12.35;31.48;96997.63;109903;1250;70542;-62
2022/03/03 10:37:09;;;;;;;8.80;7.30;;;;;;;12.02;31.62;96990.49;109993;1249;67860;-63
2022/03/03 10:39:48;;;;;;;9.30;7.30;;;;;;;11.98;32.01;96987.03;109845;1250;69369;-62
2022/03/03 10:42:19;;;;;;;10.10;7.10;;;;;;;11.99;32.42;96986.73;109886;1250;60504;-63
2022/03/03 10:44:51;;;;;;;9.00;7.40;;;;;;;11.78;32.48;96984.30;109751;1250;60467;-62
2022/03/03 10:47:27;;;;;;;10.20;7.60;;;;;;;11.47;32.70;96985.55;109971;1250;72377;-62
2022/03/03 10:49:59;;;;;;;10.60;7.50;;;;;;;10.73;33.29;96980.89;109935;1250;68214;-62
2022/03/03 10:52:33;;;;;;;9.70;7.20;;;;;;;10.11;33.89;96976.39;109947;1249;69810;-62
2022/03/03 10:55:12;;;;;;;8.60;6.60;;;;;;;9.37;35.16;96981.15;109748;1250;60518;-63
2022/03/03 10:57:43;;;;;;;10.70;8.40;;;;;;;9.24;35.83;96973.26;109599;1251;60468;-62
2022/03/03 11:00:23;;;;;;;8.80;6.60;;;;;;;9.26;35.91;96977.14;109909;1250;71633;-63
2022/03/03 11:02:58;;;;;;;9.00;6.40;;;;;;;9.70;36.15;96971.66;109874;1249;67854;-64
2022/03/03 11:05:30;;;;;;;6.80;5.10;;;;;;;10.85;34.93;96968.42;109938;1249;68497;-63
2022/03/03 11:07:59;;;;;;;8.00;6.30;;;;;;;11.67;33.86;96966.54;109715;1250;60476;-62
2022/03/03 11:10:31;;;;;;;10.40;7.40;;;;;;;12.13;31.88;96956.20;109913;1248;60476;-62
2022/03/03 11:13:00;;;;;;;9.70;7.30;;;;;;;12.16;32.42;96956.83;109698;1250;71832;-63
2022/03/03 11:15:32;;;;;;;6.80;5.80;;;;;;;11.89;31.76;96963.15;109774;1249;67656;-62
2022/03/03 11:18:01;;;;;;;10.10;6.90;;;;;;;11.46;32.25;96958.35;109646;1249;69441;-62
2022/03/03 11:20:31;;;;;;;11.10;6.70;;;;;;;11.40;32.78;96959.55;109943;1250;60610;-64
2022/03/03 11:23:01;;;;;;;8.60;6.40;;;;;;;12.25;31.70;96953.53;109923;1249;60529;-63
2022/03/03 11:25:33;;;;;;;7.80;5.80;;;;;;;13.41;30.13;96951.69;109908;1250;71522;-62
2022/03/03 11:28:14;;;;;;;6.90;5.40;;;;;;;14.05;29.24;96948.86;109912;1249;69319;-61
2022/03/03 11:30:46;;;;;;;8.20;5.50;;;;;;;13.83;29.17;96949.40;109770;1250;69553;-62
2022/03/03 11:33:27;;;;;;;8.50;5.50;;;;;;;13.30;28.70;96948.88;109734;1249;60501;-63
2022/03/03 11:36:03;;;;;;;6.00;4.80;;;;;;;14.22;28.86;96945.52;109918;1249;60874;-63